createdAt,value
2022-09-12T00:02:21.932Z,99.90
2022-09-12T00:04:49.504Z,99.90
2022-09-12T00:07:16.936Z,99.90
2022-09-12T00:09:45.405Z,99.90
2022-09-12T00:12:12.421Z,99.90
2022-09-12T00:14:39.556Z,99.90
2022-09-12T00:17:06.563Z,99.90
2022-09-12T00:19:33.696Z,99.90
2022-09-12T00:22:00.909Z,99.90
2022-09-12T00:24:28.127Z,99.90
2022-09-12T00:26:56.489Z,99.90
2022-09-12T00:29:23.638Z,99.90
2022-09-12T00:31:51.064Z,99.90
2022-09-12T00:34:18.199Z,99.90
2022-09-12T00:36:45.227Z,99.90
2022-09-12T00:39:16.814Z,99.90
2022-09-12T00:41:44.657Z,99.90
2022-09-12T00:44:46.172Z,99.90
2022-09-12T00:47:16.128Z,99.90
2022-09-12T00:49:48.216Z,99.90
2022-09-12T00:52:20.420Z,99.90
2022-09-12T00:54:49.798Z,99.90
2022-09-12T00:57:18.147Z,99.90
2022-09-12T00:59:49.057Z,99.90
2022-09-12T01:02:16.659Z,99.90
2022-09-12T01:04:45.261Z,99.90
2022-09-12T01:07:15.431Z,99.90
2022-09-12T01:09:45.317Z,99.90
2022-09-12T01:12:15.225Z,99.90
2022-09-12T01:14:42.763Z,99.90
2022-09-12T01:17:14.986Z,99.90
2022-09-12T01:20:16.692Z,99.90
2022-09-12T01:23:13.906Z,99.90
2022-09-12T01:26:00.278Z,99.90
2022-09-12T01:28:50.871Z,99.90
2022-09-12T01:31:24.591Z,99.90
2022-09-12T01:34:05.166Z,99.90
2022-09-12T01:36:42.918Z,99.90
2022-09-12T01:39:18.295Z,99.90
2022-09-12T01:41:54.544Z,99.90
2022-09-12T01:44:30.904Z,99.90
2022-09-12T01:47:05.480Z,99.90
2022-09-12T01:49:38.133Z,99.90
2022-09-12T01:52:12.785Z,99.90
2022-09-12T01:54:45.406Z,99.90
2022-09-12T01:57:20.467Z,99.90
2022-09-12T01:59:51.585Z,99.90
2022-09-12T02:02:26.275Z,99.90
2022-09-12T02:04:59.919Z,99.90
2022-09-12T02:07:33.315Z,99.90
2022-09-12T02:10:07.601Z,99.90
2022-09-12T02:12:43.023Z,99.90
2022-09-12T02:15:13.309Z,99.90
2022-09-12T02:17:44.285Z,99.90
2022-09-12T02:20:31.100Z,99.90
2022-09-12T02:23:09.897Z,99.90
2022-09-12T02:25:40.056Z,99.90
2022-09-12T02:28:11.482Z,99.90
2022-09-12T02:30:44.500Z,99.90
2022-09-12T02:33:21.827Z,99.90
2022-09-12T02:35:53.108Z,99.90
2022-09-12T02:38:24.951Z,99.90
2022-09-12T02:40:52.212Z,99.90
2022-09-12T02:43:19.284Z,99.90
2022-09-12T02:45:46.384Z,99.90
2022-09-12T02:48:21.979Z,99.90
2022-09-12T02:50:49.321Z,99.90
2022-09-12T02:53:18.092Z,99.90
2022-09-12T02:55:46.152Z,99.90
2022-09-12T02:58:18.273Z,99.90
2022-09-12T03:00:51.934Z,99.90
2022-09-12T03:03:42.698Z,99.90
2022-09-12T03:06:17.204Z,99.90
2022-09-12T03:09:01.728Z,99.90
2022-09-12T03:11:56.937Z,99.90
2022-09-12T03:14:45.361Z,99.90
2022-09-12T03:17:24.342Z,99.90
2022-09-12T03:19:59.118Z,99.90
2022-09-12T03:22:33.561Z,99.90
2022-09-12T03:25:11.233Z,99.90
2022-09-12T03:27:43.846Z,99.90
2022-09-12T03:30:12.656Z,99.90
2022-09-12T03:32:45.149Z,99.90
2022-09-12T03:35:17.933Z,99.90
2022-09-12T03:37:48.382Z,99.90
2022-09-12T03:40:15.612Z,99.90
2022-09-12T03:42:42.712Z,99.90
2022-09-12T03:45:11.195Z,99.90
2022-09-12T03:47:38.346Z,99.90
2022-09-12T03:50:06.522Z,99.90
2022-09-12T03:52:35.136Z,99.90
2022-09-12T03:55:02.935Z,99.90
2022-09-12T03:57:29.976Z,99.90
2022-09-12T03:59:57.000Z,99.90
2022-09-12T04:02:24.162Z,99.90
2022-09-12T04:04:51.319Z,99.90
2022-09-12T04:07:18.676Z,99.90
2022-09-12T04:09:47.222Z,99.90
2022-09-12T04:12:14.287Z,99.90
2022-09-12T04:14:41.447Z,99.90
2022-09-12T04:17:08.629Z,99.90
2022-09-12T04:19:35.755Z,99.90
2022-09-12T04:22:03.142Z,99.90
2022-09-12T04:24:30.264Z,99.90
2022-09-12T04:26:58.883Z,99.90
2022-09-12T04:29:26.176Z,99.90
2022-09-12T04:31:53.295Z,99.90
2022-09-12T04:34:20.331Z,99.90
2022-09-12T04:36:47.331Z,99.90
2022-09-12T04:39:14.591Z,99.90
2022-09-12T04:41:41.949Z,99.90
2022-09-12T04:44:13.409Z,99.90
2022-09-12T04:46:42.567Z,99.90
2022-09-12T04:49:09.729Z,99.90
2022-09-12T04:51:38.225Z,99.90
2022-09-12T04:54:07.297Z,99.90
2022-09-12T04:56:38.144Z,99.90
2022-09-12T04:59:05.752Z,99.90
2022-09-12T05:01:34.556Z,99.90
2022-09-12T05:04:02.593Z,99.90
2022-09-12T05:06:31.378Z,99.90
2022-09-12T05:08:59.817Z,99.90
2022-09-12T05:11:46.826Z,99.90
2022-09-12T05:14:19.560Z,99.90
2022-09-12T05:16:49.635Z,99.90
2022-09-12T05:19:17.364Z,99.90
2022-09-12T05:21:44.433Z,99.90
2022-09-12T05:24:12.135Z,99.90
2022-09-12T05:26:39.222Z,99.90
2022-09-12T05:29:07.346Z,99.90
2022-09-12T05:31:34.984Z,99.90
2022-09-12T05:34:10.034Z,99.90
2022-09-12T05:36:37.629Z,99.90
2022-09-12T05:39:04.923Z,99.90
2022-09-12T05:41:34.338Z,99.90
2022-09-12T05:44:03.663Z,99.90
2022-09-12T05:46:32.727Z,99.90
2022-09-12T05:49:05.539Z,99.90
2022-09-12T05:51:35.204Z,99.90
2022-09-12T05:54:04.063Z,99.90
2022-09-12T05:56:33.490Z,99.90
2022-09-12T05:59:02.369Z,99.90
2022-09-12T06:01:31.320Z,99.90
2022-09-12T06:04:00.893Z,99.90
2022-09-12T06:06:31.311Z,99.90
2022-09-12T06:09:00.541Z,99.90
2022-09-12T06:11:29.906Z,99.90
2022-09-12T06:13:58.387Z,99.90
2022-09-12T06:16:27.535Z,99.90
2022-09-12T06:18:55.817Z,99.90
2022-09-12T06:21:24.732Z,99.90
2022-09-12T06:23:54.265Z,99.90
2022-09-12T06:26:23.532Z,99.90
2022-09-12T06:28:51.300Z,99.90
2022-09-12T06:31:20.554Z,99.90
2022-09-12T06:33:49.925Z,99.90
2022-09-12T06:36:18.635Z,99.90
2022-09-12T06:38:48.920Z,99.90
2022-09-12T06:41:17.447Z,99.90
2022-09-12T06:43:44.496Z,99.90
2022-09-12T06:46:13.165Z,99.90
2022-09-12T06:48:42.183Z,99.90
2022-09-12T06:51:13.287Z,99.90
2022-09-12T06:53:41.330Z,99.90
2022-09-12T06:56:12.642Z,99.90
2022-09-12T06:58:41.122Z,99.90
2022-09-12T07:01:09.811Z,99.90
2022-09-12T07:03:38.139Z,98.30
2022-09-12T07:06:06.430Z,96.80
2022-09-12T07:08:34.117Z,96.80
2022-09-12T07:11:09.744Z,98.20
2022-09-12T07:13:36.828Z,99.00
2022-09-12T07:16:06.138Z,99.30
2022-09-12T07:18:33.685Z,99.90
2022-09-12T07:21:01.989Z,99.90
2022-09-12T07:23:29.802Z,99.30
2022-09-12T07:25:58.702Z,96.50
2022-09-12T07:28:26.190Z,94.30
2022-09-12T07:30:55.984Z,93.30
2022-09-12T07:33:27.409Z,91.20
2022-09-12T07:35:54.702Z,89.70
2022-09-12T07:38:22.120Z,88.10
2022-09-12T07:40:49.214Z,87.50
2022-09-12T07:43:16.300Z,90.00
2022-09-12T07:45:43.569Z,91.80
2022-09-12T07:48:10.681Z,93.00
2022-09-12T07:50:43.169Z,94.20
2022-09-12T07:53:12.159Z,95.10
2022-09-12T07:55:39.409Z,95.10
2022-09-12T07:58:06.557Z,94.50
2022-09-12T08:00:35.941Z,95.20
2022-09-12T08:03:03.801Z,95.10
2022-09-12T08:05:30.953Z,96.20
2022-09-12T08:07:59.325Z,96.20
2022-09-12T08:10:26.372Z,96.80
2022-09-12T08:12:53.571Z,97.40
2022-09-12T08:15:20.738Z,97.10
2022-09-12T08:17:47.770Z,95.90
2022-09-12T08:20:15.027Z,95.10
2022-09-12T08:22:43.223Z,94.90
2022-09-12T08:25:11.768Z,96.10
2022-09-12T08:27:39.308Z,94.80
2022-09-12T08:30:07.321Z,93.80
2022-09-12T08:32:35.108Z,94.10
2022-09-12T08:35:03.003Z,93.00
2022-09-12T08:37:30.380Z,91.30
2022-09-12T08:39:57.988Z,90.10
2022-09-12T08:42:47.148Z,90.50
2022-09-12T08:45:20.657Z,86.60
2022-09-12T08:47:48.580Z,86.10
2022-09-12T08:50:18.104Z,86.00
2022-09-12T08:52:54.777Z,82.70
2022-09-12T08:55:33.563Z,84.20
2022-09-12T08:58:10.602Z,83.00
2022-09-12T09:00:49.440Z,82.80
2022-09-12T09:03:44.455Z,78.10
2022-09-12T09:06:23.264Z,77.90
2022-09-12T09:08:58.839Z,77.60
2022-09-12T09:11:41.827Z,75.30
2022-09-12T09:14:44.954Z,75.00
2022-09-12T09:17:19.433Z,76.60
2022-09-12T09:19:51.477Z,76.00
2022-09-12T09:22:27.038Z,77.40
2022-09-12T09:25:05.075Z,75.00
2022-09-12T09:27:40.760Z,74.70
2022-09-12T09:30:15.433Z,76.40
2022-09-12T09:32:44.725Z,77.90
2022-09-12T09:35:18.844Z,77.50
2022-09-12T09:38:01.052Z,76.30
2022-09-12T09:40:37.389Z,73.70
2022-09-12T09:43:12.340Z,73.20
2022-09-12T09:45:44.497Z,75.20
2022-09-12T09:48:19.396Z,71.30
2022-09-12T09:50:49.495Z,72.20
2022-09-12T09:53:37.203Z,70.70
2022-09-12T09:56:11.835Z,69.40
2022-09-12T09:58:40.628Z,69.60
2022-09-12T10:01:16.088Z,69.90
2022-09-12T10:03:50.245Z,68.90
2022-09-12T10:06:32.353Z,66.10
2022-09-12T10:09:17.972Z,64.00
2022-09-12T10:11:46.897Z,63.70
2022-09-12T10:14:32.135Z,64.20
2022-09-12T10:17:01.676Z,62.80
2022-09-12T10:19:35.445Z,60.70
2022-09-12T10:22:03.895Z,60.80
2022-09-12T10:24:34.786Z,61.30
2022-09-12T10:27:07.798Z,59.10
2022-09-12T10:29:44.897Z,61.90
2022-09-12T10:32:21.519Z,61.10
2022-09-12T10:34:51.202Z,59.80
2022-09-12T10:37:24.473Z,59.30
2022-09-12T10:39:54.565Z,58.40
2022-09-12T10:42:44.319Z,58.10
2022-09-12T10:45:20.438Z,56.80
2022-09-12T10:47:49.619Z,57.70
2022-09-12T10:50:27.084Z,57.30
2022-09-12T10:52:54.435Z,55.90
2022-09-12T10:55:29.571Z,56.20
2022-09-12T10:58:24.661Z,54.30
2022-09-12T11:01:03.624Z,55.70
2022-09-12T11:03:49.851Z,57.50
2022-09-12T11:06:21.281Z,55.00
2022-09-12T11:09:03.588Z,55.50
2022-09-12T11:11:45.452Z,58.30
2022-09-12T11:14:28.313Z,57.90
2022-09-12T11:17:02.958Z,58.50
2022-09-12T11:19:53.301Z,58.60
2022-09-12T11:22:32.785Z,57.20
2022-09-12T11:25:13.018Z,55.30
2022-09-12T11:28:14.134Z,57.80
2022-09-12T11:30:48.475Z,55.80
2022-09-12T11:33:28.800Z,57.30
2022-09-12T11:36:00.151Z,56.90
2022-09-12T11:38:45.973Z,57.30
2022-09-12T11:41:20.612Z,56.90
2022-09-12T11:43:51.885Z,58.10
2022-09-12T11:46:24.468Z,58.10
2022-09-12T11:48:57.997Z,57.40
2022-09-12T11:51:30.729Z,58.50
2022-09-12T11:54:06.937Z,58.50
2022-09-12T11:56:36.215Z,58.30
2022-09-12T11:59:12.252Z,58.50
2022-09-12T12:01:48.504Z,57.50
2022-09-12T12:04:22.237Z,57.10
2022-09-12T12:06:56.624Z,55.70
2022-09-12T12:09:24.603Z,57.30
2022-09-12T12:11:57.924Z,56.80
2022-09-12T12:14:30.268Z,57.60
2022-09-12T12:16:57.655Z,57.90
2022-09-12T12:19:33.900Z,56.90
2022-09-12T12:22:13.013Z,58.80
2022-09-12T12:25:01.436Z,57.90
2022-09-12T12:27:49.220Z,56.20
2022-09-12T12:30:59.989Z,57.00
2022-09-12T12:34:01.562Z,57.50
2022-09-12T12:36:40.458Z,56.10
2022-09-12T12:39:48.217Z,56.80
2022-09-12T12:42:52.483Z,55.10
2022-09-12T12:45:58.697Z,57.80
2022-09-12T12:48:26.096Z,56.10
2022-09-12T12:50:53.318Z,57.40
2022-09-12T12:53:24.867Z,57.00
2022-09-12T12:55:53.169Z,55.90
2022-09-12T12:58:31.793Z,56.80
2022-09-12T13:01:12.084Z,57.00
2022-09-12T13:03:43.673Z,57.60
2022-09-12T13:06:29.223Z,57.60
2022-09-12T13:09:00.480Z,58.50
2022-09-12T13:11:33.959Z,59.60
2022-09-12T13:14:03.146Z,58.70
2022-09-12T13:16:55.131Z,57.50
2022-09-12T13:19:28.205Z,57.20
2022-09-12T13:21:55.495Z,59.20
2022-09-12T13:24:23.704Z,57.50
2022-09-12T13:26:51.148Z,58.10
2022-09-12T13:29:19.622Z,57.30
2022-09-12T13:31:52.842Z,58.30
2022-09-12T13:34:22.745Z,58.00
2022-09-12T13:37:22.512Z,58.40
2022-09-12T13:39:55.491Z,57.90
2022-09-12T13:42:39.027Z,59.60
2022-09-12T13:45:13.318Z,58.90
2022-09-12T13:47:44.415Z,57.20
2022-09-12T13:50:19.676Z,60.70
2022-09-12T13:52:51.448Z,57.20
2022-09-12T13:55:30.440Z,58.00
2022-09-12T13:58:00.389Z,59.70
2022-09-12T14:00:31.630Z,59.10
2022-09-12T14:03:19.088Z,58.40
2022-09-12T14:05:57.386Z,58.10
2022-09-12T14:08:24.857Z,59.50
2022-09-12T14:10:54.560Z,59.60
2022-09-12T14:13:24.916Z,60.70
2022-09-12T14:15:56.030Z,59.10
2022-09-12T14:18:27.090Z,59.90
2022-09-12T14:20:56.919Z,59.90
2022-09-12T14:23:29.807Z,60.10
2022-09-12T14:25:59.898Z,60.40
2022-09-12T14:28:30.282Z,60.90
2022-09-12T14:31:05.211Z,62.00
2022-09-12T14:33:46.959Z,60.40
2022-09-12T14:36:21.912Z,61.70
2022-09-12T14:38:51.573Z,60.30
2022-09-12T14:41:24.401Z,63.40
2022-09-12T14:43:56.459Z,64.00
2022-09-12T14:46:28.481Z,65.30
2022-09-12T14:49:02.146Z,64.10
2022-09-12T14:51:33.892Z,64.40
2022-09-12T14:54:01.484Z,63.00
2022-09-12T14:56:40.999Z,63.50
2022-09-12T14:59:26.422Z,64.10
2022-09-12T15:02:26.275Z,65.40
2022-09-12T15:05:15.543Z,66.00
2022-09-12T15:07:47.168Z,65.90
2022-09-12T15:10:23.001Z,66.00
2022-09-12T15:12:50.407Z,64.70
2022-09-12T15:15:20.199Z,65.90
2022-09-12T15:17:47.449Z,67.00
2022-09-12T15:20:16.022Z,64.30
2022-09-12T15:22:43.612Z,63.50
2022-09-12T15:25:12.607Z,64.40
2022-09-12T15:27:40.941Z,65.00
2022-09-12T15:30:13.429Z,65.40
2022-09-12T15:32:42.913Z,64.70
2022-09-12T15:35:14.845Z,65.80
2022-09-12T15:37:43.595Z,65.40
2022-09-12T15:40:16.002Z,66.80
2022-09-12T15:42:43.871Z,67.30
2022-09-12T15:45:17.414Z,65.30
2022-09-12T15:47:44.802Z,65.90
2022-09-12T15:50:12.012Z,64.50
2022-09-12T15:52:39.678Z,66.90
2022-09-12T15:55:13.489Z,64.90
2022-09-12T15:57:40.702Z,65.30
2022-09-12T16:00:08.950Z,66.10
2022-09-12T16:02:39.053Z,66.40
2022-09-12T16:05:11.432Z,66.30
2022-09-12T16:07:38.548Z,66.90
2022-09-12T16:10:13.493Z,67.30
2022-09-12T16:12:45.026Z,68.20
2022-09-12T16:15:14.668Z,67.50
2022-09-12T16:17:42.120Z,67.20
2022-09-12T16:20:10.202Z,69.80
2022-09-12T16:22:37.891Z,68.60
2022-09-12T16:25:08.167Z,70.40
2022-09-12T16:27:37.643Z,69.50
2022-09-12T16:30:06.110Z,69.30
2022-09-12T16:32:33.243Z,69.50
2022-09-12T16:35:00.428Z,69.10
2022-09-12T16:37:29.880Z,68.50
2022-09-12T16:39:57.063Z,69.60
2022-09-12T16:42:24.377Z,69.90
2022-09-12T16:44:52.971Z,69.70
2022-09-12T16:47:20.089Z,70.20
2022-09-12T16:49:47.285Z,71.50
2022-09-12T16:52:16.588Z,71.30
2022-09-12T16:54:46.672Z,71.20
2022-09-12T16:57:14.066Z,72.00
2022-09-12T16:59:41.547Z,72.00
2022-09-12T17:02:12.298Z,72.10
2022-09-12T17:04:39.577Z,73.10
2022-09-12T17:07:06.971Z,73.40
2022-09-12T17:09:34.215Z,74.90
2022-09-12T17:12:01.615Z,73.80
2022-09-12T17:14:29.125Z,74.70
2022-09-12T17:16:56.269Z,73.60
2022-09-12T17:19:32.996Z,73.70
2022-09-12T17:22:00.510Z,73.60
2022-09-12T17:24:27.891Z,73.20
2022-09-12T17:26:55.219Z,73.90
2022-09-12T17:29:22.320Z,74.10
2022-09-12T17:31:49.488Z,74.60
2022-09-12T17:34:17.837Z,75.60
2022-09-12T17:36:48.358Z,76.20
2022-09-12T17:39:15.746Z,76.70
2022-09-12T17:41:43.182Z,77.10
2022-09-12T17:44:12.534Z,77.50
2022-09-12T17:46:39.880Z,78.10
2022-09-12T17:49:10.611Z,78.90
2022-09-12T17:51:37.790Z,79.60
2022-09-12T17:54:08.589Z,80.30
2022-09-12T17:56:37.130Z,81.00
2022-09-12T17:59:05.799Z,81.60
2022-09-12T18:01:51.970Z,82.40
2022-09-12T18:04:20.088Z,83.40
2022-09-12T18:06:48.894Z,85.50
2022-09-12T18:09:19.495Z,85.40
2022-09-12T18:11:48.124Z,86.70
2022-09-12T18:14:15.814Z,86.80
2022-09-12T18:16:43.278Z,87.50
2022-09-12T18:19:10.996Z,89.70
2022-09-12T18:21:38.630Z,88.90
2022-09-12T18:24:06.461Z,89.10
2022-09-12T18:26:35.901Z,90.30
2022-09-12T18:29:03.076Z,91.00
2022-09-12T18:31:30.594Z,91.30
2022-09-12T18:34:01.045Z,91.80
2022-09-12T18:36:28.854Z,92.20
2022-09-12T18:38:57.430Z,92.50
2022-09-12T18:41:25.323Z,92.80
2022-09-12T18:43:57.787Z,93.20
2022-09-12T18:46:26.224Z,93.70
2022-09-12T18:48:55.531Z,94.20
2022-09-12T18:51:25.696Z,94.70
2022-09-12T18:53:56.006Z,95.10
2022-09-12T18:56:24.937Z,95.60
2022-09-12T18:58:54.362Z,95.80
2022-09-12T19:01:24.961Z,95.80
2022-09-12T19:03:53.367Z,96.00
2022-09-12T19:06:22.788Z,96.50
2022-09-12T19:08:51.267Z,96.70
2022-09-12T19:11:19.541Z,96.30
2022-09-12T19:13:48.753Z,96.10
2022-09-12T19:16:19.353Z,96.40
2022-09-12T19:18:52.384Z,96.70
2022-09-12T19:21:22.347Z,97.00
2022-09-12T19:23:49.862Z,97.10
2022-09-12T19:26:18.905Z,97.30
2022-09-12T19:28:47.232Z,97.40
2022-09-12T19:31:16.620Z,97.90
2022-09-12T19:33:44.656Z,98.20
2022-09-12T19:36:40.833Z,98.30
2022-09-12T19:39:02.308Z,98.60
2022-09-12T19:41:29.700Z,98.90
2022-09-12T19:43:57.161Z,99.20
2022-09-12T19:46:26.150Z,99.60
2022-09-12T19:48:54.213Z,99.80
2022-09-12T19:51:23.983Z,99.90
2022-09-12T19:53:51.664Z,99.90
2022-09-12T19:56:19.022Z,99.90
2022-09-12T19:58:52.065Z,99.90
2022-09-12T20:01:30.481Z,99.90
2022-09-12T20:03:58.138Z,99.90
2022-09-12T20:06:27.348Z,99.90
2022-09-12T20:08:55.018Z,99.90
2022-09-12T20:11:24.050Z,99.90
2022-09-12T20:13:51.777Z,99.90
2022-09-12T20:16:22.591Z,99.90
2022-09-12T20:18:53.208Z,99.90
2022-09-12T20:21:26.129Z,99.90
2022-09-12T20:23:54.973Z,99.90
2022-09-12T20:26:24.820Z,99.90
2022-09-12T20:28:52.229Z,99.90
2022-09-12T20:31:19.349Z,99.90
2022-09-12T20:33:51.127Z,99.90
2022-09-12T20:36:20.615Z,99.90
2022-09-12T20:38:49.657Z,99.90
2022-09-12T20:41:19.923Z,99.90
2022-09-12T20:43:50.150Z,99.90
2022-09-12T20:46:21.646Z,99.90
2022-09-12T20:48:50.472Z,99.90
2022-09-12T20:51:17.973Z,99.90
2022-09-12T20:53:45.378Z,99.90
2022-09-12T20:56:12.463Z,99.90
2022-09-12T20:58:44.058Z,99.90
2022-09-12T21:01:13.925Z,99.90
2022-09-12T21:03:42.604Z,99.90
2022-09-12T21:06:12.544Z,99.90
2022-09-12T21:08:40.182Z,99.90
2022-09-12T21:11:07.643Z,99.90
2022-09-12T21:13:34.833Z,99.90
2022-09-12T21:16:05.558Z,99.90
2022-09-12T21:18:33.750Z,99.90
2022-09-12T21:21:00.986Z,99.90
2022-09-12T21:23:28.356Z,99.90
2022-09-12T21:25:55.357Z,99.90
2022-09-12T21:28:22.460Z,99.90
2022-09-12T21:30:50.217Z,99.90
2022-09-12T21:33:20.380Z,99.90
2022-09-12T21:35:48.122Z,99.90
2022-09-12T21:38:16.083Z,99.90
2022-09-12T21:40:43.631Z,99.90
2022-09-12T21:43:12.973Z,99.90
2022-09-12T21:45:40.684Z,99.90
2022-09-12T21:48:08.568Z,99.90
2022-09-12T21:50:37.098Z,99.90
2022-09-12T21:53:04.461Z,99.90
2022-09-12T21:55:31.481Z,99.90
2022-09-12T21:57:58.576Z,99.90
2022-09-12T22:00:26.242Z,99.90
2022-09-12T22:02:53.833Z,99.90
2022-09-12T22:05:22.267Z,99.90
2022-09-12T22:07:50.853Z,99.90
2022-09-12T22:10:17.961Z,99.90
2022-09-12T22:12:46.538Z,99.90
2022-09-12T22:15:38.910Z,99.90
2022-09-12T22:18:01.001Z,99.90
2022-09-12T22:20:28.526Z,99.90
2022-09-12T22:23:15.509Z,99.90
2022-09-12T22:25:45.439Z,99.90
2022-09-12T22:28:13.783Z,99.90
2022-09-12T22:30:43.548Z,99.90
2022-09-12T22:33:10.565Z,99.90
2022-09-12T22:35:37.835Z,99.90
2022-09-12T22:38:06.239Z,99.90
2022-09-12T22:40:33.396Z,99.90
2022-09-12T22:43:01.221Z,99.90
2022-09-12T22:45:28.265Z,99.90
2022-09-12T22:48:00.844Z,99.90
2022-09-12T22:50:28.587Z,99.90
2022-09-12T22:52:55.737Z,99.90
2022-09-12T22:55:24.265Z,99.90
2022-09-12T22:57:51.437Z,99.90
2022-09-12T23:00:19.503Z,99.90
2022-09-12T23:02:46.765Z,99.90
2022-09-12T23:05:14.024Z,99.90
2022-09-12T23:07:41.054Z,99.90
2022-09-12T23:10:09.442Z,99.90
2022-09-12T23:12:37.920Z,99.90
2022-09-12T23:15:05.907Z,99.90
2022-09-12T23:17:35.939Z,99.90
2022-09-12T23:20:04.714Z,99.90
2022-09-12T23:22:32.052Z,99.90
2022-09-12T23:24:59.096Z,99.90
2022-09-12T23:27:27.290Z,99.90
2022-09-12T23:29:55.701Z,99.90
2022-09-12T23:32:22.750Z,99.90
2022-09-12T23:34:49.909Z,99.90
2022-09-12T23:37:16.971Z,99.90
2022-09-12T23:39:44.556Z,99.90
2022-09-12T23:42:12.099Z,99.90
2022-09-12T23:44:39.095Z,99.90
2022-09-12T23:47:07.556Z,99.90
2022-09-12T23:49:34.733Z,99.90
2022-09-12T23:52:02.253Z,99.90
2022-09-12T23:54:29.328Z,99.90
2022-09-12T23:56:56.362Z,99.90
2022-09-12T23:59:23.400Z,99.90
